»·PEaware :: UAL270 KPDX-KEUG

UAL270 :: KPDX-KEUG

FLIGHT INFORMATION

Flight Status: Arrived
Operator:
United Airlines
More flights by this operator :: More flights under this callsign
Pilot: Sergei F. (8485)
Aircraft: BOEING 737-200
(B732)
More flights by this aircraft type
Origin: KPDX Portland Intl
United States
Destination: KEUG Mahlon Sweet
United States
More flights between these airports :: More routes between these airports
Route: PTLD1 BTG V23 EUG
File this flight plan on PilotEdge
Remarks:
Altitude:
(Current/Filed)
12,000ft
Speed:
(Current/Filed)
300kts
Departed: 14-Dec-18 08:45 PM
Arrived: 14-Dec-18 09:11 PM
Distance/Time
Traveled:
92nm/0:26
Distance/Time
To Go:
Arrived

Flight Plot

Page will automatically refresh every two minutes.

Flight plan parsing failed; only flown route is shown


Map Options




Map Legend


Flown Route
Filed Route
Departure Airport
Arrival Airport
Navaid (VOR, NDB)
Fix

Horizontal Profiles

Position Reports

Time Latitude Longitude Heading Altitude Ground
Speed
14-Dec-18 20:22 45.591115 -122.594120 207 25ft 0kts
14-Dec-18 20:23 45.591115 -122.594120 207 25ft 0kts
14-Dec-18 20:24 45.591115 -122.594120 207 25ft 0kts
14-Dec-18 20:25 45.591115 -122.594120 207 25ft 0kts
14-Dec-18 20:26 45.591115 -122.594120 207 25ft 0kts
14-Dec-18 20:27 45.591115 -122.594120 207 25ft 0kts
14-Dec-18 20:28 45.591115 -122.594120 207 25ft 0kts
14-Dec-18 20:29 45.591115 -122.594120 207 25ft 0kts
14-Dec-18 20:30 45.591115 -122.594120 207 25ft 0kts
14-Dec-18 20:31 45.591115 -122.594120 207 25ft 0kts
14-Dec-18 20:32 45.591381 -122.593949 194 25ft 2kts
14-Dec-18 20:33 45.591949 -122.594045 150 26ft 2kts
14-Dec-18 20:34 45.592258 -122.594486 119 26ft 0kts
14-Dec-18 20:35 45.592258 -122.594485 119 26ft 0kts
14-Dec-18 20:36 45.592258 -122.594485 119 26ft 0kts
14-Dec-18 20:37 45.591513 -122.592579 119 25ft 6kts
14-Dec-18 20:38 45.590019 -122.588901 123 25ft 11kts
14-Dec-18 20:39 45.589151 -122.584374 118 25ft 12kts
14-Dec-18 20:40 45.587390 -122.579848 118 25ft 14kts
14-Dec-18 20:41 45.585249 -122.574334 118 25ft 17kts
14-Dec-18 20:42 45.583085 -122.568763 118 25ft 12kts
14-Dec-18 20:43 45.583780 -122.567358 298 25ft 10kts
14-Dec-18 20:44 45.598346 -122.602801 299 1139ft 162kts
14-Dec-18 20:45 45.621918 -122.656756 297 4311ft 166kts
14-Dec-18 20:46 45.647483 -122.721859 263 6062ft 234kts
14-Dec-18 20:47 45.599348 -122.751654 175 9390ft 258kts
14-Dec-18 20:48 45.522808 -122.729094 174 11041ft 333kts
14-Dec-18 20:49 45.433510 -122.715746 202 12016ft 315kts
14-Dec-18 20:50 45.349865 -122.752571 201 12019ft 318kts
14-Dec-18 20:51 45.264784 -122.787842 201 11917ft 322kts
14-Dec-18 20:52 45.179584 -122.822430 201 11917ft 322kts
14-Dec-18 20:53 45.093518 -122.857045 201 11916ft 323kts
14-Dec-18 20:54 45.005514 -122.883195 196 11921ft 326kts
14-Dec-18 20:55 44.916577 -122.907972 195 11925ft 329kts
14-Dec-18 20:56 44.827545 -122.925289 192 11920ft 316kts
14-Dec-18 20:57 44.749896 -122.952894 204 11678ft 265kts
14-Dec-18 20:58 44.682004 -122.987638 204 10176ft 257kts
14-Dec-18 20:59 44.616481 -123.023894 204 8662ft 252kts
14-Dec-18 21:00 44.557935 -123.058681 205 7405ft 244kts
14-Dec-18 21:01 44.500825 -123.093770 204 6733ft 218kts
14-Dec-18 21:02 44.445824 -123.128734 205 5566ft 218kts
14-Dec-18 21:03 44.391041 -123.164215 205 4434ft 217kts
14-Dec-18 21:04 44.337586 -123.199206 205 3592ft 203kts
14-Dec-18 21:05 44.286086 -123.221857 179 2901ft 178kts
14-Dec-18 21:06 44.240791 -123.220805 180 2055ft 166kts
14-Dec-18 21:07 44.200768 -123.220142 180 1627ft 127kts
14-Dec-18 21:08 44.166609 -123.219662 181 979ft 121kts
14-Dec-18 21:09 44.133023 -123.219104 181 362ft 118kts
14-Dec-18 21:10 44.121057 -123.218822 147 370ft 6kts
14-Dec-18 21:11 44.120941 -123.215906 89 370ft 6kts
14-Dec-18 21:12 44.119597 -123.215564 157 370ft 8kts
14-Dec-18 21:13 44.118885 -123.213754 118 372ft 0kts
14-Dec-18 21:14 44.118854 -123.213676 119 372ft 0kts
14-Dec-18 21:15 44.118854 -123.213676 119 372ft 0kts

Navigation Log

Ident Type
Flight plan parsing failed, navigation log unavailable